Flight Track Log - Related Links

Times and Time Zones

All times are in EDT time to prevent confusion due to time zone crossing. See the AWI3970 flight status page for this flight to view local times or setup timezone preferences in your user account.

Time Position Orientation Groundspeed Altitude Reporting Facility
EDT Latitude Longitude Course Direction KTS MPH feet Rate Location/Type
Sun 23:01:54 39.8667 -75.2667 37° Northeast 166 191 800  Level Philadelphia TRACON
Sun 23:02:54 39.8333 -75.3167 229° Southwest 202 232 3,500 3,105 Climbing Philadelphia TRACON
Sun 23:03:48 39.7833 -75.3667 218° Southwest 245 282 6,700 3,263 Climbing Philadelphia TRACON
Sun 23:04:00 39.8167 -74.8809 90° East  Level FlightAware Approximate
Sun 23:04:48 39.7500 -75.2833 117° Southeast 315 362 9,700  Level Philadelphia TRACON
Sun 23:05:00 39.7956 -74.7612 105° East  Level FlightAware Approximate
Sun 23:05:54 39.7500 -75.1500 90° East 377 434 11,400  Level Philadelphia TRACON
Sun 23:06:00 39.8199 -74.6635 37° Northeast  Level FlightAware Approximate
Sun 23:07:00 39.8950 -74.5884 37° Northeast  Level FlightAware Approximate
Sun 23:08:06 39.7781 -74.8578 83° East 406 467 12,100  Level New York Center
Sun 23:09:05 39.8081 -74.7136 75° East 406 467 12,800 1,339 Climbing New York Center
Sun 23:10:07 39.8922 -74.6208 40° Northeast 376 433 14,800 2,000 Climbing New York Center
Sun 23:11:05 39.9847 -74.5311 37° Northeast 390 449 16,800 1,815 Climbing New York Center
Sun 23:12:06 40.0903 -74.4256 37° Northeast 418 481 18,400 1,574 Climbing New York Center
Sun 23:13:07 40.1806 -74.3353 37° Northeast 435 501 20,000 1,382 Climbing New York Center
Sun 23:14:38 40.3564 -74.2347 24° Northeast 460 529 21,900 1,152 Climbing Boston Center
Sun 23:15:38 40.4817 -74.2136 North 448 516 22,900 850 Climbing Boston Center
Sun 23:16:38 40.6092 -74.1922 North 448 516 23,600 500 Climbing Boston Center
Sun 23:17:38 40.7386 -74.1739 North 453 521 23,900 200 Climbing Boston Center
Sun 23:18:38 40.8619 -74.1525 North 453 521 24,000 50 Climbing Boston Center
Sun 23:19:38 40.9853 -74.1283 North 453 521 24,000  Level Boston Center
Sun 23:20:38 41.1064 -74.1067 North 447 514 24,000  Level Boston Center
Sun 23:21:38 41.2297 -74.0822 North 447 514 24,000  Level Boston Center
Sun 23:22:38 41.3467 -74.0603 North 442 509 24,000 -650 Level Boston Center
Sun 23:23:38 41.4700 -74.0386 North 442 509 22,700 -1,450 Descending Boston Center
Sun 23:24:38 41.5892 -74.0194 North 437 503 21,100 -1,700 Descending Boston Center
Sun 23:25:38 41.7019 -73.9972 North 425 489 19,300 -1,900 Descending Boston Center
Sun 23:26:38 41.8086 -73.9775 North 390 449 17,300 -2,000 Descending Boston Center
Sun 23:27:38 41.9192 -73.9578 North 377 434 15,300 -1,820 Descending Boston Center
Sun 23:28:07 41.9608 -73.9533 North 349 402 14,600 -1,700 Descending Boston Center
Sun 23:28:38 42.0028 -73.9431 10° North 342 394 13,600 -1,780 Descending Boston Center
Sun 23:29:38 42.0989 -73.9286 North 323 372 11,900 -1,300 Descending Boston Center
Sun 23:30:38 42.1886 -73.9111 North 329 379 11,000 -800 Descending Boston Center
Sun 23:31:38 42.2639 -73.8933 10° North 308 354 10,300 -1,400 Descending Boston Center
Sun 23:32:38 42.3497 -73.8783 North 289 333 8,200 -2,300 Descending Boston Center
Sun 23:33:38 42.4269 -73.8633 North 284 327 5,700 -2,300 Descending Boston Center
Sun 23:34:38 42.5000 -73.8425 12° North 274 315 3,600 -1,350 Descending Boston Center
Sun 23:35:38 42.5589 -73.8128 20° North 240 276 3,000 -800 Descending Boston Center
Sun 23:36:38 42.6089 -73.7997 11° North 206 237 2,000 -1,000 Descending Boston Center

Login

Don't have an account? Register now (free) for customized features, flight alerts, and more!